Time;durP1;ratioP1;P1;durP2;ratioP2;P2;SDS_P1;SDS_P2;PMS_P1;PMS_P2;Temp;Humidity;BMP_temperature;BMP_pressure;BME280_temperature;BME280_humidity;BME280_pressure;Samples;Min_cycle;Max_cycle;Signal;HPM_P1;HPM_P2
2022/08/24 00:01:49;;;;;;;;;;;;;;;22.57;31.11;97549.66;4978703;28;997;-78
2022/08/24 00:04:15;;;;;;;;;;;;;;;22.59;30.99;97547.19;4978999;28;985;-78
2022/08/24 00:06:40;;;;;;;;;;;;;;;22.73;30.84;97543.78;4978656;28;896;-78
2022/08/24 00:09:05;;;;;;;;;;;;;;;22.31;31.19;97546.97;4978855;28;1922;-77
2022/08/24 00:11:31;;;;;;;;;;;;;;;22.49;31.05;97545.53;4978300;28;1014;-77
2022/08/24 00:13:56;;;;;;;;;;;;;;;22.53;31.09;97543.31;4978616;28;979;-79
2022/08/24 00:16:22;;;;;;;;;;;;;;;22.44;31.37;97549.75;4994296;28;1024;-77
2022/08/24 00:18:47;;;;;;;;;;;;;;;22.68;30.87;97541.53;4978081;28;930;-78
2022/08/24 00:21:13;;;;;;;;;;;;;;;22.66;31.54;97535.53;4978121;28;914;-78
2022/08/24 00:23:39;;;;;;;;;;;;;;;22.75;31.23;97534.81;4978193;28;995;-78
2022/08/24 00:26:04;;;;;;;;;;;;;;;22.56;31.86;97528.25;4978322;28;1064;-77
2022/08/24 00:28:30;;;;;;;;;;;;;;;22.53;31.75;97532.00;4978385;28;1911;-77
2022/08/24 00:30:55;;;;;;;;;;;;;;;22.55;31.97;97532.34;4958468;29;1334;-77
2022/08/24 00:33:21;;;;;;;;;;;;;;;22.61;31.96;97541.81;4958834;29;1227;-77
2022/08/24 00:35:46;;;;;;;;;;;;;;;22.58;32.11;97534.22;4958825;29;923;-78
2022/08/24 00:38:11;;;;;;;;;;;;;;;22.61;32.19;97519.13;4958755;29;955;-77
2022/08/24 00:40:38;;;;;;;;;;;;;;;22.61;32.11;97517.09;4958928;29;1028;-78
2022/08/24 00:43:06;;;;;;;;;;;;;;;22.62;32.28;97515.03;4901472;29;934;-78
2022/08/24 00:45:36;;;;;;;;;;;;;;;22.69;32.27;97514.78;4901087;29;1009;-78
2022/08/24 00:48:03;;;;;;;;;;;;;;;22.74;32.29;97519.03;4901088;29;1914;-78
2022/08/24 00:50:35;;;;;;;;;;;;;;;22.58;32.22;97520.03;4885564;29;1139;-77
2022/08/24 00:53:01;;;;;;;;;;;;;;;22.77;31.64;97516.06;4901188;29;933;-78
2022/08/24 00:55:29;;;;;;;;;;;;;;;22.61;31.74;97530.47;4844859;29;989;-78
2022/08/24 00:57:56;;;;;;;;;;;;;;;22.62;32.00;97526.38;4826708;29;996;-78
2022/08/24 01:00:23;;;;;;;;;;;;;;;22.50;32.22;97521.59;4811985;29;1048;-77
2022/08/24 01:02:50;;;;;;;;;;;;;;;22.62;31.68;97520.72;4811705;29;1947;-77
2022/08/24 01:05:18;;;;;;;;;;;;;;;22.62;32.07;97512.19;4811191;29;926;-77
2022/08/24 01:07:43;;;;;;;;;;;;;;;22.67;31.88;97510.81;4825762;29;1923;-78
2022/08/24 01:10:12;;;;;;;;;;;;;;;22.65;32.15;97497.09;4825616;29;967;-78
2022/08/24 01:12:39;;;;;;;;;;;;;;;23.07;31.46;97508.03;4826052;29;983;-78
2022/08/24 01:15:05;;;;;;;;;;;;;;;22.81;32.24;97504.59;4826084;29;921;-78
2022/08/24 01:20:15;;;;;;;;;;;;;;;22.70;32.68;97507.84;4851079;29;936;-77
2022/08/24 01:23:01;;;;;;;;;;;;;;;22.69;32.55;97502.63;4862596;29;936;-78
2022/08/24 01:25:27;;;;;;;;;;;;;;;22.45;33.00;97508.00;4844093;29;1881;-78
2022/08/24 01:27:53;;;;;;;;;;;;;;;22.70;32.65;97522.03;4862882;29;1915;-78
2022/08/24 01:30:19;;;;;;;;;;;;;;;22.81;32.63;97513.88;4844846;29;1227;-78
2022/08/24 01:32:54;;;;;;;;;;;;;;;22.78;32.52;97511.97;4844764;29;1015;-77
2022/08/24 01:35:20;;;;;;;;;;;;;;;22.57;32.77;97524.13;4845098;29;944;-77
2022/08/24 01:37:45;;;;;;;;;;;;;;;22.51;32.71;97540.19;4863149;29;1106;-78
2022/08/24 01:40:11;;;;;;;;;;;;;;;22.72;32.65;97547.06;4863313;29;1036;-78
2022/08/24 01:42:37;;;;;;;;;;;;;;;22.59;32.80;97555.69;4843782;29;1246;-78
2022/08/24 01:45:02;;;;;;;;;;;;;;;22.62;32.54;97560.41;4874257;29;1036;-78
2022/08/24 01:47:28;;;;;;;;;;;;;;;22.79;32.21;97547.59;4843811;29;1915;-78
2022/08/24 01:49:55;;;;;;;;;;;;;;;22.81;32.53;97545.09;4843596;29;1198;-78
2022/08/24 01:52:22;;;;;;;;;;;;;;;22.78;32.65;97557.34;4843313;29;1263;-78
2022/08/24 01:54:49;;;;;;;;;;;;;;;22.63;32.87;97554.25;4843345;29;1444;-78
2022/08/24 01:57:15;;;;;;;;;;;;;;;22.59;32.99;97544.34;4814185;29;1114;-78
2022/08/24 01:59:41;;;;;;;;;;;;;;;22.68;32.90;97538.69;4753416;30;971;-77
2022/08/24 02:02:09;;;;;;;;;;;;;;;22.70;33.05;97524.88;4721061;30;1271;-77
2022/08/24 02:04:36;;;;;;;;;;;;;;;22.58;33.28;97531.38;4700686;30;1215;-78
2022/08/24 02:07:04;;;;;;;;;;;;;;;22.79;32.72;97539.06;4701149;30;1137;-78
2022/08/24 02:09:30;;;;;;;;;;;;;;;22.64;33.07;97529.56;4753433;30;1975;-77
2022/08/24 02:11:57;;;;;;;;;;;;;;;22.80;33.07;97531.38;4752926;30;931;-78
2022/08/24 02:14:23;;;;;;;;;;;;;;;22.65;33.23;97513.34;4707386;30;1090;-78
2022/08/24 02:16:49;;;;;;;;;;;;;;;22.73;32.97;97486.25;4700585;30;922;-78
2022/08/24 02:19:22;;;;;;;;;;;;;;;22.79;32.70;97473.84;4700505;30;1413;-78
2022/08/24 02:21:47;;;;;;;;;;;;;;;22.77;32.64;97482.03;4700231;30;924;-78
2022/08/24 02:24:13;;;;;;;;;;;;;;;22.81;32.47;97484.75;4720944;30;1283;-78
2022/08/24 02:26:39;;;;;;;;;;;;;;;22.84;32.39;97486.63;4741414;30;1073;-78
2022/08/24 02:29:05;;;;;;;;;;;;;;;22.75;32.50;97489.44;4770846;30;1975;-77
2022/08/24 02:31:30;;;;;;;;;;;;;;;22.84;32.07;97473.22;4771008;30;1212;-78
2022/08/24 02:33:56;;;;;;;;;;;;;;;22.85;32.25;97466.31;4794599;29;1730;-78
2022/08/24 02:36:22;;;;;;;;;;;;;;;22.69;32.35;97463.72;4791638;29;1120;-77
2022/08/24 02:38:48;;;;;;;;;;;;;;;22.80;32.49;97463.31;4843492;29;1170;-78
2022/08/24 02:41:17;;;;;;;;;;;;;;;22.52;32.90;97477.34;4814553;29;1103;-78
2022/08/24 02:43:43;;;;;;;;;;;;;;;22.76;32.69;97469.13;4843584;29;1103;-78
2022/08/24 02:46:15;;;;;;;;;;;;;;;22.85;32.63;97471.22;4858388;29;1183;-78
2022/08/24 02:48:41;;;;;;;;;;;;;;;22.85;32.41;97466.31;4861605;29;1914;-78
2022/08/24 02:51:06;;;;;;;;;;;;;;;22.83;32.66;97462.34;4840171;29;1283;-78
2022/08/24 02:53:32;;;;;;;;;;;;;;;22.79;32.87;97473.84;4861685;29;969;-78
2022/08/24 02:55:58;;;;;;;;;;;;;;;22.76;33.03;97471.94;4846580;29;1301;-78
2022/08/24 02:58:23;;;;;;;;;;;;;;;22.84;32.79;97473.22;4861714;29;1005;-78
2022/08/24 03:00:49;;;;;;;;;;;;;;;22.60;33.09;97466.53;4861432;29;1221;-77
2022/08/24 03:03:18;;;;;;;;;;;;;;;22.81;32.57;97470.56;4816001;29;1270;-78
2022/08/24 03:05:43;;;;;;;;;;;;;;;22.80;32.42;97461.25;4813000;29;1108;-78
2022/08/24 03:08:09;;;;;;;;;;;;;;;22.69;32.55;97466.56;4806426;29;1977;-77
2022/08/24 03:10:34;;;;;;;;;;;;;;;22.66;32.53;97463.88;4794636;29;1107;-78
2022/08/24 03:13:01;;;;;;;;;;;;;;;22.58;32.92;97457.66;4806616;29;1164;-78
2022/08/24 03:15:27;;;;;;;;;;;;;;;22.59;32.90;97453.59;4872332;29;1189;-78
2022/08/24 03:17:52;;;;;;;;;;;;;;;22.69;32.56;97441.03;4864566;29;1250;-78
2022/08/24 03:20:20;;;;;;;;;;;;;;;22.64;32.49;97438.81;4850598;29;1191;-79
2022/08/24 03:22:46;;;;;;;;;;;;;;;22.70;32.44;97430.50;4875498;29;1113;-79
2022/08/24 03:25:12;;;;;;;;;;;;;;;22.88;32.19;97436.25;4879686;29;1283;-78
2022/08/24 03:27:37;;;;;;;;;;;;;;;22.70;32.84;97439.78;4880017;29;1968;-78
2022/08/24 03:30:03;;;;;;;;;;;;;;;22.77;32.69;97442.31;4861279;29;1126;-78
2022/08/24 03:32:29;;;;;;;;;;;;;;;22.79;32.55;97434.13;4845662;29;1220;-79
2022/08/24 03:34:54;;;;;;;;;;;;;;;22.80;32.82;97432.09;4824630;29;1221;-78
2022/08/24 03:37:20;;;;;;;;;;;;;;;22.70;32.98;97431.28;4805962;29;1682;-78
2022/08/24 03:39:46;;;;;;;;;;;;;;;22.73;33.11;97421.81;4792533;29;909;-79
2022/08/24 03:42:12;;;;;;;;;;;;;;;22.67;33.47;97420.06;4788323;30;983;-79
2022/08/24 03:44:40;;;;;;;;;;;;;;;22.81;33.16;97408.94;4805847;29;1303;-78
2022/08/24 03:47:06;;;;;;;;;;;;;;;22.77;33.17;97402.63;4806543;29;1046;-78
2022/08/24 03:49:31;;;;;;;;;;;;;;;22.75;33.39;97396.63;4806108;29;1986;-78
2022/08/24 03:51:59;;;;;;;;;;;;;;;22.99;33.02;97390.41;4810506;29;1116;-79
2022/08/24 03:54:24;;;;;;;;;;;;;;;22.67;33.46;97386.81;4846844;29;1267;-79
2022/08/24 03:56:50;;;;;;;;;;;;;;;22.82;33.03;97382.16;4842688;29;1224;-78
2022/08/24 03:59:15;;;;;;;;;;;;;;;22.95;33.11;97389.75;4824081;29;1243;-78
2022/08/24 04:01:42;;;;;;;;;;;;;;;22.96;33.01;97392.16;4792112;29;1334;-78
2022/08/24 04:04:08;;;;;;;;;;;;;;;22.92;32.80;97387.88;4802887;29;1806;-79
2022/08/24 04:06:35;;;;;;;;;;;;;;;22.59;33.78;97409.03;4805994;29;1499;-78
2022/08/24 04:09:00;;;;;;;;;;;;;;;22.98;33.10;97400.19;4835686;29;2056;-78
2022/08/24 04:11:31;;;;;;;;;;;;;;;22.84;33.21;97402.31;4839938;29;1554;-78
2022/08/24 04:13:56;;;;;;;;;;;;;;;22.82;33.42;97404.84;4823812;29;1363;-79
2022/08/24 04:16:22;;;;;;;;;;;;;;;22.92;33.04;97407.75;4838995;29;1214;-79
2022/08/24 04:18:55;;;;;;;;;;;;;;;22.85;33.34;97420.94;4857068;29;1248;-78
2022/08/24 04:21:22;;;;;;;;;;;;;;;22.99;33.33;97424.47;4842461;29;1075;-78
2022/08/24 04:23:48;;;;;;;;;;;;;;;22.90;33.46;97438.59;4860589;29;1375;-78
2022/08/24 04:26:17;;;;;;;;;;;;;;;22.83;33.34;97440.44;4863880;29;1194;-79
2022/08/24 04:28:42;;;;;;;;;;;;;;;22.81;33.45;97448.66;4863859;29;1907;-77
2022/08/24 04:31:08;;;;;;;;;;;;;;;22.86;33.58;97456.53;4879283;29;1131;-78
2022/08/24 04:33:40;;;;;;;;;;;;;;;22.76;33.16;97463.44;4894564;29;1291;-78
2022/08/24 04:36:07;;;;;;;;;;;;;;;22.96;33.20;97470.81;4893372;29;1102;-79
2022/08/24 04:38:33;;;;;;;;;;;;;;;22.74;33.50;97465.16;4864089;29;1265;-78
2022/08/24 04:41:20;;;;;;;;;;;;;;;22.83;33.41;97468.81;4824067;29;1231;-78
2022/08/24 04:43:46;;;;;;;;;;;;;;;23.04;32.64;97472.06;4770799;30;1272;-78
2022/08/24 04:46:15;;;;;;;;;;;;;;;22.78;32.89;97475.09;4755198;30;1113;-78
2022/08/24 04:48:41;;;;;;;;;;;;;;;23.00;32.47;97471.44;4755346;30;1931;-79
2022/08/24 04:51:07;;;;;;;;;;;;;;;22.94;32.90;97467.63;4737723;30;1443;-78
2022/08/24 04:53:32;;;;;;;;;;;;;;;23.04;32.57;97472.88;4723006;30;1381;-78
2022/08/24 04:55:58;;;;;;;;;;;;;;;22.66;33.51;97469.53;4722819;30;1318;-78
2022/08/24 04:58:24;;;;;;;;;;;;;;;22.88;32.92;97471.06;4702451;30;1268;-78
2022/08/24 05:00:49;;;;;;;;;;;;;;;22.80;33.15;97464.09;4702658;30;1263;-78
2022/08/24 05:03:15;;;;;;;;;;;;;;;22.62;33.60;97464.00;4685952;30;1013;-78
2022/08/24 05:05:41;;;;;;;;;;;;;;;22.74;33.47;97465.97;4700017;30;1256;-78
2022/08/24 05:08:07;;;;;;;;;;;;;;;23.02;32.99;97468.94;4722192;30;1903;-78
2022/08/24 05:10:33;;;;;;;;;;;;;;;23.10;33.09;97470.19;4735549;30;1166;-79
2022/08/24 05:12:58;;;;;;;;;;;;;;;22.88;33.47;97479.59;4750525;30;1294;-78
2022/08/24 05:15:24;;;;;;;;;;;;;;;23.09;33.10;97477.13;4741315;30;1038;-78
2022/08/24 05:17:49;;;;;;;;;;;;;;;23.08;32.82;97476.34;4737220;30;1253;-78
2022/08/24 05:20:16;;;;;;;;;;;;;;;22.88;33.27;97482.41;4748911;30;1198;-78
2022/08/24 05:22:41;;;;;;;;;;;;;;;22.75;33.78;97490.22;4759925;30;1284;-79
2022/08/24 05:25:07;;;;;;;;;;;;;;;22.85;33.56;97486.19;4751780;30;1256;-79
2022/08/24 05:27:33;;;;;;;;;;;;;;;22.90;33.25;97484.00;4772324;30;1912;-78
2022/08/24 05:29:59;;;;;;;;;;;;;;;23.07;32.90;97488.19;4716323;30;1412;-78
2022/08/24 05:32:25;;;;;;;;;;;;;;;22.94;32.77;97484.66;4705678;30;1142;-78
2022/08/24 05:34:52;;;;;;;;;;;;;;;23.08;32.69;97467.06;4736163;30;1149;-78
2022/08/24 05:37:17;;;;;;;;;;;;;;;23.19;32.20;97450.38;4721979;30;1378;-78
2022/08/24 05:40:02;;;;;;;;;;;;;;;22.85;32.96;97443.63;4736896;30;1019;-79
2022/08/24 05:42:32;;;;;;;;;;;;;;;22.71;33.28;97454.75;4764097;30;1359;-78
2022/08/24 05:44:57;;;;;;;;;;;;;;;22.95;32.92;97463.53;4743243;30;1411;-79
2022/08/24 05:47:23;;;;;;;;;;;;;;;22.84;33.08;97463.94;4758531;29;1971;-78
2022/08/24 05:49:52;;;;;;;;;;;;;;;22.87;33.18;97452.44;4753834;29;1385;-78
2022/08/24 05:52:19;;;;;;;;;;;;;;;22.94;33.03;97459.13;4754269;30;955;-78
2022/08/24 05:54:45;;;;;;;;;;;;;;;23.02;32.74;97463.25;4771650;30;1293;-78
2022/08/24 05:57:14;;;;;;;;;;;;;;;23.10;32.51;97464.53;4756519;30;1481;-78
2022/08/24 05:59:52;;;;;;;;;;;;;;;23.02;33.09;97469.72;4771938;30;1081;-78
2022/08/24 06:02:18;;;;;;;;;;;;;;;22.97;33.03;97473.16;4789648;30;1001;-78
2022/08/24 06:04:44;;;;;;;;;;;;;;;23.05;32.97;97485.81;4790131;29;1350;-78
2022/08/24 06:07:10;;;;;;;;;;;;;;;22.88;33.13;97498.66;4807636;29;1263;-78
2022/08/24 06:09:39;;;;;;;;;;;;;;;22.95;32.90;97491.91;4792665;29;1911;-78
2022/08/24 06:12:05;;;;;;;;;;;;;;;22.84;32.73;97500.81;4785616;29;1253;-78
2022/08/24 06:14:33;;;;;;;;;;;;;;;22.99;32.67;97509.56;4807427;29;1439;-78
2022/08/24 06:16:59;;;;;;;;;;;;;;;22.91;32.84;97508.28;4792672;29;1218;-78
2022/08/24 06:19:25;;;;;;;;;;;;;;;22.98;32.95;97508.00;4792683;29;1233;-78
2022/08/24 06:21:52;;;;;;;;;;;;;;;22.98;33.04;97516.50;4808864;29;1385;-78
2022/08/24 06:27:20;;;;;;;;;;;;;;;22.90;33.03;97512.38;4775679;29;1202;-78
2022/08/24 06:27:21;;;;;;;;;;;;;;;22.86;33.00;97526.69;4789424;30;1075;-78
2022/08/24 06:29:50;;;;;;;;;;;;;;;22.83;32.69;97519.88;4789313;29;1911;-78
2022/08/24 06:32:45;;;;;;;;;;;;;;;22.93;32.49;97534.94;4838261;29;1037;-78
2022/08/24 06:35:27;;;;;;;;;;;;;;;22.75;32.31;97495.91;4858884;29;1309;-78
2022/08/24 06:37:53;;;;;;;;;;;;;;;23.20;31.92;97550.50;4843443;29;1003;-78
2022/08/24 06:40:19;;;;;;;;;;;;;;;22.77;32.42;97544.44;4824724;29;1289;-78
2022/08/24 06:42:45;;;;;;;;;;;;;;;22.87;32.33;97560.25;4825230;29;1345;-78
2022/08/24 06:45:39;;;;;;;;;;;;;;;22.99;31.92;97572.00;4824684;29;1090;-78
2022/08/24 06:48:04;;;;;;;;;;;;;;;22.92;31.91;97577.97;4812523;29;1920;-79
2022/08/24 06:50:30;;;;;;;;;;;;;;;22.58;32.42;97577.53;4805759;29;1217;-78
2022/08/24 06:52:55;;;;;;;;;;;;;;;22.91;31.54;97580.00;4772586;30;980;-78
2022/08/24 06:55:23;;;;;;;;;;;;;;;22.83;31.65;97576.59;4785828;29;1171;-78
2022/08/24 06:57:49;;;;;;;;;;;;;;;22.87;31.46;97580.09;4788133;29;1262;-79
2022/08/24 07:00:16;;;;;;;;;;;;;;;22.91;31.65;97574.34;4825014;29;1472;-78
2022/08/24 07:02:41;;;;;;;;;;;;;;;22.88;31.27;97570.38;4780998;29;1128;-78
2022/08/24 07:05:07;;;;;;;;;;;;;;;22.75;31.53;97566.81;4790628;29;1112;-78
2022/08/24 07:07:56;;;;;;;;;;;;;;;22.69;31.66;97560.16;4770079;30;1911;-78
2022/08/24 07:10:22;;;;;;;;;;;;;;;22.74;31.87;97559.56;4753269;30;1273;-78
2022/08/24 07:12:49;;;;;;;;;;;;;;;22.81;31.44;97549.97;4767312;30;1284;-79
2022/08/24 07:15:15;;;;;;;;;;;;;;;22.75;31.64;97551.84;4788201;29;1259;-79
2022/08/24 07:17:40;;;;;;;;;;;;;;;22.81;32.31;97545.09;4780425;29;1219;-79
2022/08/24 07:20:08;;;;;;;;;;;;;;;22.99;32.60;97538.75;4753936;30;1389;-74
2022/08/24 07:22:52;;;;;;;;;;;;;;;23.21;33.11;97544.38;4734795;30;1031;-79
2022/08/24 07:25:17;;;;;;;;;;;;;;;23.23;33.13;97541.84;4734368;30;1723;-78
2022/08/24 07:27:43;;;;;;;;;;;;;;;23.36;33.20;97550.22;4734588;30;1920;-78
2022/08/24 07:30:08;;;;;;;;;;;;;;;23.42;32.96;97559.75;4753446;30;1149;-79
2022/08/24 07:32:35;;;;;;;;;;;;;;;23.43;33.12;97571.88;4807017;29;1084;-78
2022/08/24 07:35:00;;;;;;;;;;;;;;;23.57;34.09;97597.66;4825128;29;1567;-80
2022/08/24 07:37:26;;;;;;;;;;;;;;;23.47;33.57;97592.41;4827666;29;1339;-78
2022/08/24 07:39:53;;;;;;;;;;;;;;;23.18;33.12;97599.22;4842870;29;1159;-79
2022/08/24 07:42:19;;;;;;;;;;;;;;;23.14;33.03;97595.72;4774925;30;1115;-79
2022/08/24 07:44:46;;;;;;;;;;;;;;;22.90;33.26;97597.47;4785309;29;1100;-79
2022/08/24 07:47:11;;;;;;;;;;;;;;;23.07;32.82;97598.84;4785281;30;1176;-79
2022/08/24 07:49:39;;;;;;;;;;;;;;;22.76;32.86;97598.78;4773000;30;1965;-79
2022/08/24 07:52:04;;;;;;;;;;;;;;;22.98;32.18;97604.47;4754351;30;1138;-79
2022/08/24 07:54:30;;;;;;;;;;;;;;;22.91;32.09;97611.22;4752642;30;1654;-79
2022/08/24 07:56:58;;;;;;;;;;;;;;;22.93;31.95;97619.25;4766402;30;1280;-78
2022/08/24 07:59:23;;;;;;;;;;;;;;;22.88;32.04;97618.59;4770369;30;1120;-79
2022/08/24 08:01:51;;;;;;;;;;;;;;;22.74;31.75;97610.63;4770317;30;1193;-79
2022/08/24 08:04:20;;;;;;;;;;;;;;;22.99;31.56;97612.50;4802430;29;1246;-79
2022/08/24 08:06:46;;;;;;;;;;;;;;;23.12;31.05;97613.22;4796824;29;1352;-79
2022/08/24 08:09:11;;;;;;;;;;;;;;;23.16;31.01;97610.25;4826947;29;1996;-80
2022/08/24 08:11:38;;;;;;;;;;;;;;;23.04;30.99;97603.41;4842230;29;1147;-79
2022/08/24 08:14:04;;;;;;;;;;;;;;;22.81;31.43;97596.16;4845415;29;1274;-78
2022/08/24 08:16:30;;;;;;;;;;;;;;;22.93;31.19;97597.34;4845362;29;1147;-79
2022/08/24 08:18:55;;;;;;;;;;;;;;;23.02;31.00;97590.94;4851463;29;1305;-78
2022/08/24 08:24:14;;;;;;;;;;;;;;;22.91;31.23;97590.56;4879674;29;1156;-79
2022/08/24 08:26:40;;;;;;;;;;;;;;;22.93;31.35;97597.34;4864320;29;1208;-79
2022/08/24 08:29:14;;;;;;;;;;;;;;;23.01;31.33;97597.88;4827181;29;1915;-80
2022/08/24 08:31:40;;;;;;;;;;;;;;;22.93;31.48;97579.53;4827251;29;963;-79
2022/08/24 08:34:07;;;;;;;;;;;;;;;22.82;31.73;97592.06;4811964;29;1131;-78
2022/08/24 08:36:34;;;;;;;;;;;;;;;22.88;31.63;97593.06;4794012;29;1112;-79
2022/08/24 08:39:00;;;;;;;;;;;;;;;22.86;31.84;97604.06;4811804;29;1325;-79
2022/08/24 08:41:41;;;;;;;;;;;;;;;22.94;31.70;97615.94;4809063;29;1531;-79
2022/08/24 08:44:19;;;;;;;;;;;;;;;22.79;31.94;97618.50;4824314;29;1245;-79
2022/08/24 08:47:00;;;;;;;;;;;;;;;23.02;31.26;97616.47;4808732;29;1126;-79
2022/08/24 08:49:34;;;;;;;;;;;;;;;22.93;31.53;97613.56;4755009;30;1976;-79
2022/08/24 08:52:11;;;;;;;;;;;;;;;22.84;31.07;97628.47;4754847;30;1261;-78
2022/08/24 08:54:37;;;;;;;;;;;;;;;22.90;31.52;97631.50;4754862;30;964;-79
2022/08/24 08:57:09;;;;;;;;;;;;;;;22.86;31.57;97637.31;4759309;30;1091;-79
2022/08/24 08:59:37;;;;;;;;;;;;;;;22.71;31.70;97631.38;4802184;29;1085;-79
2022/08/24 09:02:09;;;;;;;;;;;;;;;22.89;31.38;97639.25;4770154;30;1180;-79
2022/08/24 09:05:01;;;;;;;;;;;;;;;22.98;31.13;97632.84;4776450;30;1132;-78
2022/08/24 09:07:43;;;;;;;;;;;;;;;22.90;31.24;97626.66;4790235;29;1104;-79
2022/08/24 09:10:16;;;;;;;;;;;;;;;22.90;31.32;97632.34;4780466;29;946;-80
2022/08/24 09:13:00;;;;;;;;;;;;;;;22.86;31.38;97638.09;4762289;30;1228;-79
2022/08/24 09:15:44;;;;;;;;;;;;;;;22.67;31.42;97624.25;4774381;30;1052;-79
2022/08/24 09:18:21;;;;;;;;;;;;;;;22.72;31.43;97615.94;4796822;29;1042;-79
2022/08/24 09:20:56;;;;;;;;;;;;;;;22.60;31.50;97619.63;4855451;29;1324;-79
2022/08/24 09:23:36;;;;;;;;;;;;;;;22.76;31.04;97616.59;4881685;29;1092;-78
2022/08/24 09:26:03;;;;;;;;;;;;;;;22.97;31.00;97628.44;4881481;29;966;-79
2022/08/24 09:28:31;;;;;;;;;;;;;;;22.61;31.58;97604.19;4851298;29;1899;-79
2022/08/24 09:31:02;;;;;;;;;;;;;;;22.77;31.11;97620.22;4869484;29;992;-78
2022/08/24 09:33:35;;;;;;;;;;;;;;;22.95;30.72;97622.41;4863201;29;910;-78
2022/08/24 09:36:07;;;;;;;;;;;;;;;22.73;31.18;97617.50;4841224;29;931;-79
2022/08/24 09:38:35;;;;;;;;;;;;;;;22.96;31.11;97621.97;4873053;29;1133;-78
2022/08/24 09:41:19;;;;;;;;;;;;;;;22.91;31.11;97621.78;4881399;29;947;-79
2022/08/24 09:43:57;;;;;;;;;;;;;;;22.79;30.98;97615.66;4881153;29;994;-78
2022/08/24 09:46:27;;;;;;;;;;;;;;;22.91;30.99;97613.25;4865869;29;936;-79
2022/08/24 09:48:58;;;;;;;;;;;;;;;22.88;31.25;97607.25;4865961;29;1988;-79
2022/08/24 09:51:36;;;;;;;;;;;;;;;22.91;30.90;97610.44;4893090;29;1284;-79
2022/08/24 09:54:09;;;;;;;;;;;;;;;22.81;31.34;97607.50;4888036;29;1036;-79
2022/08/24 09:56:53;;;;;;;;;;;;;;;22.88;31.45;97610.09;4865605;29;953;-79
2022/08/24 09:59:37;;;;;;;;;;;;;;;22.76;31.50;97610.94;4881058;29;996;-79
2022/08/24 10:02:05;;;;;;;;;;;;;;;22.92;31.17;97612.00;4881127;29;995;-79
2022/08/24 10:05:09;;;;;;;;;;;;;;;22.86;31.10;97606.91;4890193;29;948;-79
2022/08/24 10:07:54;;;;;;;;;;;;;;;22.88;31.37;97595.09;4825870;29;1919;-78
2022/08/24 10:10:19;;;;;;;;;;;;;;;22.84;31.42;97583.84;4825350;29;945;-79
2022/08/24 10:12:47;;;;;;;;;;;;;;;22.58;31.72;97585.25;4825542;29;947;-78
2022/08/24 10:15:33;;;;;;;;;;;;;;;22.93;31.23;97588.03;4826149;29;2145;-78
2022/08/24 10:18:17;;;;;;;;;;;;;;;22.69;31.46;97582.84;4843556;29;1604;-80
2022/08/24 10:20:49;;;;;;;;;;;;;;;22.80;31.16;97566.22;4843820;29;969;-79
2022/08/24 10:23:37;;;;;;;;;;;;;;;22.71;31.83;97568.97;4825596;29;1320;-79
2022/08/24 10:26:07;;;;;;;;;;;;;;;22.42;32.34;97562.78;4807257;29;1028;-79
2022/08/24 10:28:35;;;;;;;;;;;;;;;22.55;32.28;97555.00;4804914;29;1923;-78
2022/08/24 10:31:03;;;;;;;;;;;;;;;23.03;31.04;97564.13;4807148;29;974;-78
2022/08/24 10:33:47;;;;;;;;;;;;;;;22.84;31.73;97549.03;4806913;29;967;-79
2022/08/24 10:36:24;;;;;;;;;;;;;;;22.92;31.60;97530.50;4821310;29;1117;-79
2022/08/24 10:42:06;;;;;;;;;;;;;;;22.86;31.97;97521.78;4806003;29;1169;-79
2022/08/24 10:44:50;;;;;;;;;;;;;;;22.70;32.37;97539.03;4807102;29;1044;-78
2022/08/24 10:47:20;;;;;;;;;;;;;;;22.87;31.75;97537.56;4806299;29;1034;-78
2022/08/24 10:49:51;;;;;;;;;;;;;;;22.84;31.83;97555.50;4806319;29;1899;-79
2022/08/24 10:52:29;;;;;;;;;;;;;;;22.85;31.56;97573.31;4806756;29;972;-78
2022/08/24 10:54:55;;;;;;;;;;;;;;;22.79;32.01;97581.63;4806615;29;947;-79
2022/08/24 10:57:20;;;;;;;;;;;;;;;23.06;31.46;97591.59;4806726;29;1035;-79
2022/08/24 10:59:46;;;;;;;;;;;;;;;23.10;31.24;97586.56;4806806;29;1362;-79
2022/08/24 11:02:27;;;;;;;;;;;;;;;23.08;31.19;97587.03;4811060;29;977;-79
2022/08/24 11:04:56;;;;;;;;;;;;;;;22.92;31.57;97594.97;4842963;29;932;-79
2022/08/24 11:07:21;;;;;;;;;;;;;;;22.97;31.30;97597.22;4837568;29;1558;-78
2022/08/24 11:09:47;;;;;;;;;;;;;;;22.68;31.58;97606.75;4861105;29;1965;-80
2022/08/24 11:12:35;;;;;;;;;;;;;;;22.90;31.52;97611.66;4872473;29;924;-79
2022/08/24 11:15:08;;;;;;;;;;;;;;;22.88;31.24;97615.75;4824567;29;1096;-79
2022/08/24 11:17:34;;;;;;;;;;;;;;;22.91;31.29;97605.53;4821037;29;1096;-78
2022/08/24 11:19:59;;;;;;;;;;;;;;;22.78;31.40;97602.72;4791255;29;984;-78
2022/08/24 11:22:31;;;;;;;;;;;;;;;22.86;31.31;97609.72;4806545;29;1109;-79
2022/08/24 11:25:20;;;;;;;;;;;;;;;22.92;31.41;97606.34;4806098;29;1221;-79
2022/08/24 11:27:47;;;;;;;;;;;;;;;22.86;31.19;97592.72;4734901;30;1912;-79
2022/08/24 11:30:12;;;;;;;;;;;;;;;22.70;31.28;97601.44;4734983;30;1040;-78
2022/08/24 11:32:51;;;;;;;;;;;;;;;22.93;31.11;97593.72;4734930;30;1076;-81
2022/08/24 11:35:27;;;;;;;;;;;;;;;22.98;31.03;97590.28;4735021;30;941;-79
2022/08/24 11:37:57;;;;;;;;;;;;;;;22.72;31.39;97593.25;4725726;30;1339;-79
2022/08/24 11:40:33;;;;;;;;;;;;;;;22.85;31.28;97591.13;4752509;30;969;-79
2022/08/24 11:43:01;;;;;;;;;;;;;;;22.90;30.85;97586.13;4735414;30;989;-79
2022/08/24 11:45:44;;;;;;;;;;;;;;;22.86;31.19;97592.72;4752490;30;1047;-79
2022/08/24 11:48:19;;;;;;;;;;;;;;;22.98;30.96;97581.78;4752213;30;1916;-79
2022/08/24 11:50:47;;;;;;;;;;;;;;;22.99;30.97;97583.34;4744638;30;1010;-79
2022/08/24 11:53:18;;;;;;;;;;;;;;;22.99;31.13;97577.66;4791347;29;1001;-79
2022/08/24 11:56:10;;;;;;;;;;;;;;;22.90;31.12;97574.78;4812933;29;1091;-79
2022/08/24 11:58:56;;;;;;;;;;;;;;;22.87;31.00;97577.28;4791696;30;967;-79
2022/08/24 12:01:31;;;;;;;;;;;;;;;22.66;31.43;97566.75;4787025;29;1026;-79
2022/08/24 12:03:59;;;;;;;;;;;;;;;22.91;31.05;97565.03;4815233;29;971;-80
2022/08/24 12:06:43;;;;;;;;;;;;;;;22.80;31.22;97559.75;4809471;29;1207;-79
2022/08/24 12:09:18;;;;;;;;;;;;;;;22.87;31.30;97554.56;4809658;29;1915;-79
2022/08/24 12:11:49;;;;;;;;;;;;;;;22.75;31.44;97546.94;4810033;29;979;-80
2022/08/24 12:14:20;;;;;;;;;;;;;;;22.97;31.03;97552.59;4791480;30;957;-78
2022/08/24 12:17:03;;;;;;;;;;;;;;;22.78;31.09;97539.53;4762445;30;1430;-79
2022/08/24 12:19:30;;;;;;;;;;;;;;;22.90;31.19;97546.41;4738146;30;1050;-79
2022/08/24 12:21:59;;;;;;;;;;;;;;;22.67;31.27;97551.31;4738031;30;1009;-79
2022/08/24 12:24:27;;;;;;;;;;;;;;;22.80;31.33;97543.50;4738069;30;1070;-79
2022/08/24 12:26:55;;;;;;;;;;;;;;;22.98;31.07;97542.03;4757320;30;1298;-78
2022/08/24 12:29:28;;;;;;;;;;;;;;;22.81;31.24;97550.75;4758593;30;1981;-78
2022/08/24 12:31:54;;;;;;;;;;;;;;;22.90;30.95;97552.91;4758547;30;960;-79
2022/08/24 12:34:23;;;;;;;;;;;;;;;22.74;31.33;97544.56;4756834;30;1043;-79
2022/08/24 12:37:06;;;;;;;;;;;;;;;22.70;31.40;97541.09;4795760;29;966;-79
2022/08/24 12:39:38;;;;;;;;;;;;;;;22.76;31.41;97548.53;4809061;29;963;-79
2022/08/24 12:42:07;;;;;;;;;;;;;;;22.74;31.32;97539.69;4773037;30;1053;-79
2022/08/24 12:45:02;;;;;;;;;;;;;;;22.81;31.10;97532.97;4772921;30;1030;-79
2022/08/24 12:47:30;;;;;;;;;;;;;;;22.91;31.09;97536.66;4720160;30;1114;-78
2022/08/24 12:50:07;;;;;;;;;;;;;;;22.84;31.05;97544.16;4750469;30;1923;-79
2022/08/24 12:52:33;;;;;;;;;;;;;;;22.85;31.19;97551.44;4737082;30;1005;-79
2022/08/24 12:55:01;;;;;;;;;;;;;;;22.68;31.31;97543.59;4737853;30;988;-79
2022/08/24 12:57:27;;;;;;;;;;;;;;;22.75;31.37;97541.28;4742756;30;950;-79
2022/08/24 12:59:53;;;;;;;;;;;;;;;22.77;31.21;97544.44;4755016;30;919;-78
2022/08/24 13:02:19;;;;;;;;;;;;;;;22.93;30.86;97529.25;4737389;30;1170;-79
2022/08/24 13:04:47;;;;;;;;;;;;;;;22.90;31.03;97529.38;4732902;30;936;-79
2022/08/24 13:07:25;;;;;;;;;;;;;;;23.05;30.80;97527.56;4719677;30;949;-78
2022/08/24 13:09:59;;;;;;;;;;;;;;;23.00;30.81;97522.50;4737088;30;1916;-79
2022/08/24 13:12:37;;;;;;;;;;;;;;;22.99;30.86;97520.94;4737214;30;928;-79
2022/08/24 13:15:29;;;;;;;;;;;;;;;22.90;31.19;97524.53;4737446;30;1084;-80
2022/08/24 13:17:58;;;;;;;;;;;;;;;22.60;31.54;97528.91;4736672;30;987;-79
2022/08/24 13:20:27;;;;;;;;;;;;;;;22.75;31.24;97534.81;4749712;30;895;-79
2022/08/24 13:23:04;;;;;;;;;;;;;;;22.77;31.43;97533.09;4756218;29;1004;-78